createdAt,value
2023-01-20T00:01:22.722Z,67.68
2023-01-20T00:03:50.776Z,68.06
2023-01-20T00:06:18.646Z,68.13
2023-01-20T00:08:46.513Z,67.82
2023-01-20T00:11:14.409Z,67.86
2023-01-20T00:13:42.522Z,68.42
2023-01-20T00:16:12.608Z,68.79
2023-01-20T00:18:41.328Z,69.44
2023-01-20T00:21:10.978Z,68.65
2023-01-20T00:23:39.446Z,69.12
2023-01-20T00:26:08.371Z,68.83
2023-01-20T00:28:36.633Z,68.62
2023-01-20T00:31:17.176Z,68.13
2023-01-20T00:33:45.465Z,68.70
2023-01-20T00:36:14.454Z,68.98
2023-01-20T00:38:42.283Z,68.74
2023-01-20T00:41:10.579Z,67.79
2023-01-20T00:43:38.501Z,67.36
2023-01-20T00:46:07.491Z,66.90
2023-01-20T00:48:37.022Z,67.93
2023-01-20T00:51:06.137Z,67.36
2023-01-20T00:53:33.981Z,67.13
2023-01-20T00:56:02.224Z,68.13
2023-01-20T00:58:30.130Z,66.96
2023-01-20T01:00:58.784Z,66.72
2023-01-20T01:03:27.971Z,67.19
2023-01-20T01:06:06.885Z,67.18
2023-01-20T01:08:35.308Z,67.09
2023-01-20T01:11:03.351Z,66.41
2023-01-20T01:13:31.224Z,66.91
2023-01-20T01:15:59.234Z,66.62
2023-01-20T01:18:27.023Z,66.42
2023-01-20T01:20:54.821Z,66.37
2023-01-20T01:23:24.029Z,65.98
2023-01-20T01:25:51.775Z,66.39
2023-01-20T01:28:19.527Z,66.96
2023-01-20T01:30:47.433Z,67.00
2023-01-20T01:33:15.178Z,66.59
2023-01-20T01:35:43.147Z,66.61
2023-01-20T01:38:10.891Z,65.65
2023-01-20T01:40:40.004Z,66.36
2023-01-20T01:43:21.842Z,66.87
2023-01-20T01:45:49.617Z,67.80
2023-01-20T01:48:19.357Z,67.19
2023-01-20T01:50:54.126Z,67.85
2023-01-20T01:53:22.405Z,68.02
2023-01-20T01:55:55.327Z,67.60
2023-01-20T01:58:28.382Z,68.73
2023-01-20T02:00:56.300Z,68.83
2023-01-20T02:03:24.511Z,69.30
2023-01-20T02:05:53.938Z,68.89
2023-01-20T02:08:21.934Z,68.55
2023-01-20T02:10:51.033Z,67.72
2023-01-20T02:13:18.832Z,68.60
2023-01-20T02:15:53.121Z,68.20
2023-01-20T02:18:37.746Z,68.86
2023-01-20T02:21:45.010Z,67.55
2023-01-20T02:24:47.552Z,67.10
2023-01-20T02:27:23.942Z,67.50
2023-01-20T02:30:17.033Z,66.59
2023-01-20T02:32:56.199Z,67.12
2023-01-20T02:35:30.678Z,67.02
2023-01-20T02:38:11.901Z,65.55
2023-01-20T02:40:48.939Z,65.57
2023-01-20T02:43:22.033Z,65.64
2023-01-20T02:45:57.646Z,66.48
2023-01-20T02:48:35.713Z,66.49
2023-01-20T02:51:10.291Z,66.35
2023-01-20T02:53:44.641Z,67.77
2023-01-20T02:56:14.055Z,67.04
2023-01-20T02:58:46.551Z,66.63
2023-01-20T03:01:18.514Z,67.29
2023-01-20T03:03:50.894Z,66.45
2023-01-20T03:06:22.427Z,66.40
2023-01-20T03:08:53.553Z,66.36
2023-01-20T03:11:21.458Z,66.77
2023-01-20T03:13:54.241Z,68.35
2023-01-20T03:16:24.665Z,67.96
2023-01-20T03:18:55.193Z,68.28
2023-01-20T03:21:23.398Z,67.71
2023-01-20T03:23:54.266Z,67.46
2023-01-20T03:26:23.712Z,66.78
2023-01-20T03:28:51.585Z,66.96
2023-01-20T03:31:23.070Z,66.76
2023-01-20T03:33:56.138Z,66.46
2023-01-20T03:36:26.821Z,66.92
2023-01-20T03:38:57.010Z,66.81
2023-01-20T03:41:31.287Z,66.71
2023-01-20T03:44:08.107Z,66.44
2023-01-20T03:46:44.007Z,65.77
2023-01-20T03:49:20.519Z,66.66
2023-01-20T03:51:57.933Z,66.67
2023-01-20T03:54:29.480Z,65.90
2023-01-20T03:57:04.134Z,65.78
2023-01-20T03:59:35.201Z,66.17
2023-01-20T04:02:06.257Z,66.28
2023-01-20T04:04:38.534Z,67.14
2023-01-20T04:07:07.419Z,67.51
2023-01-20T04:09:40.435Z,67.72
2023-01-20T04:12:08.614Z,67.32
2023-01-20T04:14:36.814Z,68.16
2023-01-20T04:17:07.268Z,66.74
2023-01-20T04:19:36.458Z,65.96
2023-01-20T04:22:08.788Z,67.10
2023-01-20T04:24:43.112Z,67.78
2023-01-20T04:27:10.909Z,68.19
2023-01-20T04:29:41.375Z,66.05
2023-01-20T04:32:12.292Z,66.94
2023-01-20T04:34:41.475Z,65.99
2023-01-20T04:37:09.222Z,65.54
2023-01-20T04:39:36.996Z,65.24
2023-01-20T04:42:05.017Z,65.87
2023-01-20T04:44:32.783Z,66.27
2023-01-20T04:47:00.595Z,68.45
2023-01-20T04:49:28.550Z,68.84
2023-01-20T04:51:57.669Z,69.56
2023-01-20T04:54:25.435Z,69.08
2023-01-20T04:56:53.181Z,69.52
2023-01-20T04:59:21.322Z,69.89
2023-01-20T05:01:49.127Z,69.63
2023-01-20T05:04:16.940Z,70.26
2023-01-20T05:06:44.967Z,69.04
2023-01-20T05:09:16.297Z,67.99
2023-01-20T05:11:44.234Z,67.04
2023-01-20T05:14:12.655Z,66.94
2023-01-20T05:16:40.677Z,66.56
2023-01-20T05:19:08.445Z,66.75
2023-01-20T05:21:36.339Z,67.36
2023-01-20T05:24:04.300Z,67.67
2023-01-20T05:26:33.494Z,67.73
2023-01-20T05:29:02.655Z,67.11
2023-01-20T05:31:30.465Z,66.75
2023-01-20T05:33:59.066Z,66.07
2023-01-20T05:36:28.273Z,66.80
2023-01-20T05:38:56.122Z,67.60
2023-01-20T05:41:23.897Z,67.38
2023-01-20T05:43:55.636Z,68.73
2023-01-20T05:46:23.527Z,68.74
2023-01-20T05:48:51.399Z,68.15
2023-01-20T05:51:19.407Z,67.67
2023-01-20T05:53:47.169Z,67.59
2023-01-20T05:56:16.132Z,67.59
2023-01-20T05:58:44.052Z,67.05
2023-01-20T06:01:15.381Z,67.08
2023-01-20T06:03:43.684Z,66.94
2023-01-20T06:06:15.617Z,67.93
2023-01-20T06:08:43.709Z,67.43
2023-01-20T06:11:12.163Z,66.22
2023-01-20T06:13:40.304Z,67.38
2023-01-20T06:16:08.525Z,67.66
2023-01-20T06:18:37.794Z,66.33
2023-01-20T06:21:05.775Z,65.59
2023-01-20T06:23:33.629Z,64.97
2023-01-20T06:26:02.709Z,65.26
2023-01-20T06:28:30.890Z,64.71
2023-01-20T06:31:03.313Z,64.95
2023-01-20T06:33:31.447Z,64.12
2023-01-20T06:36:00.773Z,63.71
2023-01-20T06:38:31.102Z,63.41
2023-01-20T06:40:59.692Z,63.67
2023-01-20T06:43:29.226Z,63.34
2023-01-20T06:46:01.073Z,63.75
2023-01-20T06:48:29.386Z,63.83
2023-01-20T06:51:03.156Z,64.05
2023-01-20T06:53:31.050Z,63.84
2023-01-20T06:55:59.897Z,64.54
2023-01-20T06:58:30.123Z,64.96
2023-01-20T07:00:58.801Z,64.96
2023-01-20T07:03:26.597Z,64.26
2023-01-20T07:05:58.570Z,64.06
2023-01-20T07:08:28.006Z,63.87
2023-01-20T07:10:56.895Z,64.12
2023-01-20T07:13:24.733Z,64.03
2023-01-20T07:15:52.640Z,63.52
2023-01-20T07:18:20.573Z,63.24
2023-01-20T07:20:48.378Z,64.82
2023-01-20T07:23:16.192Z,63.96
2023-01-20T07:25:45.316Z,63.65
2023-01-20T07:28:13.087Z,63.39
2023-01-20T07:30:40.901Z,63.92
2023-01-20T07:33:08.680Z,63.91
2023-01-20T07:35:36.624Z,63.41
2023-01-20T07:38:04.512Z,64.12
2023-01-20T07:40:32.387Z,64.22
2023-01-20T07:43:04.642Z,64.58
2023-01-20T07:45:32.462Z,64.92
2023-01-20T07:48:01.856Z,65.33
2023-01-20T07:50:29.809Z,65.38
2023-01-20T07:52:57.676Z,65.34
2023-01-20T07:55:25.502Z,65.11
2023-01-20T07:57:53.276Z,65.84
2023-01-20T08:00:23.102Z,65.89
2023-01-20T08:02:51.057Z,65.91
2023-01-20T08:05:18.896Z,66.23
2023-01-20T08:07:51.350Z,65.13
2023-01-20T08:10:19.444Z,64.46
2023-01-20T08:12:47.266Z,64.63
2023-01-20T08:15:15.146Z,64.02
2023-01-20T08:17:44.429Z,63.81
2023-01-20T08:20:13.039Z,64.86
2023-01-20T08:22:40.807Z,64.85
2023-01-20T08:25:09.475Z,65.35
2023-01-20T08:27:37.230Z,65.03
2023-01-20T08:30:05.937Z,64.32
2023-01-20T08:32:33.732Z,64.19
2023-01-20T08:35:02.854Z,63.73
2023-01-20T08:37:30.646Z,65.00
2023-01-20T08:39:58.517Z,64.94
2023-01-20T08:42:26.411Z,65.54
2023-01-20T08:44:54.225Z,65.42
2023-01-20T08:47:22.069Z,65.42
2023-01-20T08:49:49.862Z,64.99
2023-01-20T08:52:19.037Z,64.45
2023-01-20T08:54:46.870Z,63.76
2023-01-20T08:57:15.024Z,63.03
2023-01-20T08:59:42.885Z,62.34
2023-01-20T09:02:11.117Z,60.76
2023-01-20T09:04:39.006Z,61.74
2023-01-20T09:07:07.772Z,61.29
2023-01-20T09:09:37.458Z,59.95
2023-01-20T09:12:05.834Z,59.40
2023-01-20T09:14:33.782Z,60.10
2023-01-20T09:17:02.759Z,60.44
2023-01-20T09:19:30.844Z,59.43
2023-01-20T09:21:58.707Z,59.67
2023-01-20T09:24:26.542Z,59.21
2023-01-20T09:26:56.807Z,59.35
2023-01-20T09:29:24.740Z,59.39
2023-01-20T09:31:58.129Z,58.42
2023-01-20T09:34:27.451Z,58.07
2023-01-20T09:36:56.972Z,56.86
2023-01-20T09:39:42.868Z,56.87
2023-01-20T09:42:42.329Z,56.66
2023-01-20T09:45:24.608Z,56.63
2023-01-20T09:47:58.311Z,57.70
2023-01-20T09:50:50.829Z,56.13
2023-01-20T09:53:51.871Z,56.23
2023-01-20T09:56:23.236Z,55.47
2023-01-20T09:58:59.175Z,55.11
2023-01-20T10:01:32.708Z,54.24
2023-01-20T10:04:06.368Z,54.21
2023-01-20T10:06:38.582Z,55.02
2023-01-20T10:09:17.260Z,55.46
2023-01-20T10:11:47.414Z,54.92
2023-01-20T10:14:22.741Z,55.22
2023-01-20T10:16:55.353Z,54.84
2023-01-20T10:19:30.961Z,54.58
2023-01-20T10:22:08.367Z,54.30
2023-01-20T10:24:41.455Z,54.19
2023-01-20T10:27:09.246Z,54.78
2023-01-20T10:29:42.092Z,55.34
2023-01-20T10:32:16.866Z,55.41
2023-01-20T10:34:47.837Z,54.55
2023-01-20T10:37:16.345Z,55.27
2023-01-20T10:39:51.038Z,55.18
2023-01-20T10:42:20.011Z,55.42
2023-01-20T10:44:52.090Z,54.41
2023-01-20T10:47:26.511Z,53.84
2023-01-20T10:50:31.688Z,54.58
2023-01-20T10:53:13.543Z,53.48
2023-01-20T10:55:57.172Z,52.80
2023-01-20T10:58:29.067Z,53.32
2023-01-20T11:01:00.993Z,52.73
2023-01-20T11:03:32.387Z,53.45
2023-01-20T11:06:00.150Z,52.57
2023-01-20T11:08:29.766Z,52.00
2023-01-20T11:10:59.783Z,43.04
2023-01-20T11:13:27.559Z,38.68
2023-01-20T11:16:00.146Z,36.26
2023-01-20T11:18:31.141Z,35.04
2023-01-20T11:21:01.805Z,35.45
2023-01-20T11:23:37.500Z,40.96
2023-01-20T11:26:13.715Z,41.03
2023-01-20T11:28:54.752Z,42.84
2023-01-20T11:31:36.526Z,41.55
2023-01-20T11:34:21.637Z,42.58
2023-01-20T11:36:49.719Z,44.21
2023-01-20T11:39:29.003Z,46.29
2023-01-20T11:42:16.459Z,45.64
2023-01-20T11:44:45.006Z,45.76
2023-01-20T11:47:33.081Z,46.19
2023-01-20T11:50:34.747Z,47.06
2023-01-20T11:53:20.916Z,46.07
2023-01-20T11:55:52.499Z,46.08
2023-01-20T11:58:22.908Z,47.66
2023-01-20T12:00:52.127Z,48.16
2023-01-20T12:03:30.505Z,48.50
2023-01-20T12:06:04.127Z,48.87
2023-01-20T12:08:41.574Z,46.71
2023-01-20T12:11:12.762Z,46.94
2023-01-20T12:13:59.705Z,46.55
2023-01-20T12:16:30.942Z,46.92
2023-01-20T12:19:06.631Z,47.11
2023-01-20T12:21:41.054Z,46.33
2023-01-20T12:24:16.804Z,47.25
2023-01-20T12:26:44.706Z,46.33
2023-01-20T12:29:21.323Z,47.41
2023-01-20T12:31:49.910Z,47.23
2023-01-20T12:34:28.163Z,46.43
2023-01-20T12:37:13.535Z,47.55
2023-01-20T12:40:04.195Z,47.37
2023-01-20T12:43:01.130Z,47.63
2023-01-20T12:45:42.456Z,47.45
2023-01-20T12:48:26.779Z,49.40
2023-01-20T12:51:12.432Z,47.60
2023-01-20T12:53:56.194Z,47.95
2023-01-20T12:56:35.397Z,48.09
2023-01-20T12:59:15.149Z,47.88
2023-01-20T13:01:54.871Z,47.42
2023-01-20T13:04:58.112Z,48.37
2023-01-20T13:07:48.206Z,47.74
2023-01-20T13:10:26.592Z,47.28
2023-01-20T13:13:01.294Z,47.21
2023-01-20T13:15:31.424Z,46.93
2023-01-20T13:18:24.422Z,46.60
2023-01-20T13:20:53.978Z,47.94
2023-01-20T13:23:26.470Z,48.89
2023-01-20T13:25:55.413Z,47.50
2023-01-20T13:28:26.823Z,46.23
2023-01-20T13:30:57.260Z,46.15
2023-01-20T13:33:33.932Z,46.61
2023-01-20T13:36:02.644Z,47.47
2023-01-20T13:38:35.273Z,46.81
2023-01-20T13:41:06.031Z,46.08
2023-01-20T13:43:35.911Z,47.75
2023-01-20T13:46:36.910Z,48.44
2023-01-20T13:49:16.578Z,48.71
2023-01-20T13:51:46.817Z,48.14
2023-01-20T13:54:38.481Z,48.20
2023-01-20T13:57:47.225Z,48.26
2023-01-20T14:00:17.710Z,48.53
2023-01-20T14:02:46.955Z,48.87
2023-01-20T14:05:27.604Z,49.38
2023-01-20T14:07:55.734Z,50.32
2023-01-20T14:10:25.376Z,50.47
2023-01-20T14:12:53.169Z,50.82
2023-01-20T14:15:40.027Z,51.12
2023-01-20T14:18:19.609Z,51.28
2023-01-20T14:21:03.607Z,51.52
2023-01-20T14:23:37.570Z,52.04
2023-01-20T14:26:13.275Z,52.41
2023-01-20T14:28:49.066Z,51.94
2023-01-20T14:31:24.167Z,52.51
2023-01-20T14:33:57.906Z,52.59
2023-01-20T14:36:27.545Z,52.00
2023-01-20T14:38:58.680Z,52.66
2023-01-20T14:41:31.341Z,52.22
2023-01-20T14:44:00.389Z,52.74
2023-01-20T14:46:29.579Z,52.77
2023-01-20T14:48:58.016Z,52.75
2023-01-20T14:51:26.222Z,52.67
2023-01-20T14:54:29.231Z,52.93
2023-01-20T14:56:59.415Z,52.91
2023-01-20T14:59:27.640Z,53.06
2023-01-20T15:01:57.607Z,52.54
2023-01-20T15:04:25.537Z,53.24
2023-01-20T15:06:55.311Z,53.77
2023-01-20T15:09:28.893Z,53.12
2023-01-20T15:12:42.710Z,53.75
2023-01-20T15:15:31.185Z,53.53
2023-01-20T15:18:23.001Z,53.57
2023-01-20T15:21:00.892Z,54.37
2023-01-20T15:23:38.193Z,54.09
2023-01-20T15:26:10.913Z,53.21
2023-01-20T15:28:43.776Z,54.42
2023-01-20T15:31:16.971Z,54.93
2023-01-20T15:33:45.550Z,55.58
2023-01-20T15:36:22.028Z,55.25
2023-01-20T15:38:50.507Z,55.01
2023-01-20T15:41:18.391Z,55.45
2023-01-20T15:43:46.771Z,55.41
2023-01-20T15:46:18.156Z,55.59
2023-01-20T15:48:46.973Z,55.50
2023-01-20T15:51:16.372Z,56.31
2023-01-20T15:53:44.679Z,56.67
2023-01-20T15:56:19.822Z,56.89
2023-01-20T15:58:48.741Z,57.12
2023-01-20T16:01:20.532Z,56.48
2023-01-20T16:03:48.419Z,55.43
2023-01-20T16:06:17.749Z,55.35
2023-01-20T16:08:47.564Z,54.81
2023-01-20T16:11:15.968Z,56.19
2023-01-20T16:13:44.096Z,56.79
2023-01-20T16:16:14.691Z,56.99
2023-01-20T16:18:44.038Z,58.20
2023-01-20T16:21:12.522Z,58.04
2023-01-20T16:23:40.432Z,57.85
2023-01-20T16:26:20.936Z,58.34
2023-01-20T16:28:48.820Z,58.63
2023-01-20T16:31:17.048Z,58.36
2023-01-20T16:33:46.489Z,59.06
2023-01-20T16:36:17.021Z,58.64
2023-01-20T16:38:45.637Z,58.94
2023-01-20T16:41:16.652Z,58.47
2023-01-20T16:43:44.728Z,58.89
2023-01-20T16:46:15.221Z,57.48
2023-01-20T16:48:43.401Z,58.45
2023-01-20T16:51:13.984Z,59.06
2023-01-20T16:53:42.139Z,59.99
2023-01-20T16:56:15.128Z,61.11
2023-01-20T16:58:43.109Z,60.91
2023-01-20T17:01:13.111Z,60.72
2023-01-20T17:03:42.015Z,60.12
2023-01-20T17:06:12.907Z,60.41
2023-01-20T17:08:40.960Z,59.79
2023-01-20T17:11:08.881Z,59.98
2023-01-20T17:13:36.738Z,59.80
2023-01-20T17:16:05.755Z,60.63
2023-01-20T17:18:33.781Z,59.82
2023-01-20T17:21:05.386Z,59.54
2023-01-20T17:23:35.194Z,62.26
2023-01-20T17:26:03.202Z,62.16
2023-01-20T17:28:31.142Z,63.08
2023-01-20T17:31:02.294Z,62.88
2023-01-20T17:33:30.393Z,62.25
2023-01-20T17:35:58.605Z,61.62
2023-01-20T17:38:26.470Z,61.59
2023-01-20T17:40:55.999Z,62.23
2023-01-20T17:43:23.840Z,63.20
2023-01-20T17:45:51.726Z,64.34
2023-01-20T17:48:19.616Z,64.90
2023-01-20T17:50:47.501Z,65.46
2023-01-20T17:53:15.255Z,65.80
2023-01-20T17:55:43.123Z,64.44
2023-01-20T17:58:12.339Z,64.51
2023-01-20T18:00:40.071Z,65.40
2023-01-20T18:03:07.892Z,64.71
2023-01-20T18:05:36.183Z,65.10
2023-01-20T18:08:04.103Z,65.36
2023-01-20T18:10:31.884Z,64.63
2023-01-20T18:12:59.687Z,64.37
2023-01-20T18:15:29.084Z,63.94
2023-01-20T18:17:56.952Z,64.65
2023-01-20T18:20:24.801Z,65.05
2023-01-20T18:22:52.667Z,66.12
2023-01-20T18:25:20.463Z,66.23
2023-01-20T18:27:48.609Z,66.52
2023-01-20T18:30:17.380Z,66.82
2023-01-20T18:32:47.033Z,67.00
2023-01-20T18:35:14.769Z,66.75
2023-01-20T18:37:42.545Z,66.41
2023-01-20T18:40:11.988Z,66.14
2023-01-20T18:42:39.878Z,66.80
2023-01-20T18:45:08.891Z,66.38
2023-01-20T18:47:36.648Z,67.45
2023-01-20T18:50:06.741Z,67.92
2023-01-20T18:52:34.618Z,68.81
2023-01-20T18:55:02.405Z,69.26
2023-01-20T18:57:30.205Z,69.15
2023-01-20T18:59:58.010Z,69.05
2023-01-20T19:02:26.818Z,69.85
2023-01-20T19:04:54.617Z,69.70
2023-01-20T19:07:23.822Z,69.01
2023-01-20T19:09:51.978Z,69.13
2023-01-20T19:12:19.800Z,69.00
2023-01-20T19:14:47.633Z,67.48
2023-01-20T19:17:15.444Z,66.17
2023-01-20T19:19:46.549Z,66.96
2023-01-20T19:22:14.355Z,68.66
2023-01-20T19:24:43.513Z,67.80
2023-01-20T19:27:11.281Z,67.46
2023-01-20T19:29:41.019Z,68.55
2023-01-20T19:32:09.071Z,69.02
2023-01-20T19:34:36.959Z,70.87
2023-01-20T19:37:04.710Z,69.97
2023-01-20T19:39:32.573Z,69.75
2023-01-20T19:42:01.754Z,70.27
2023-01-20T19:44:29.782Z,70.70
2023-01-20T19:47:02.500Z,70.46
2023-01-20T19:49:30.212Z,69.65
2023-01-20T19:51:59.624Z,71.37
2023-01-20T19:54:28.568Z,71.66
2023-01-20T19:56:56.304Z,72.04
2023-01-20T19:59:25.432Z,71.75
2023-01-20T20:01:53.429Z,73.43
2023-01-20T20:04:23.946Z,73.46
2023-01-20T20:06:51.787Z,73.52
2023-01-20T20:09:23.185Z,73.27
2023-01-20T20:11:51.354Z,72.54
2023-01-20T20:14:20.528Z,74.04
2023-01-20T20:16:50.246Z,74.25
2023-01-20T20:19:19.994Z,73.44
2023-01-20T20:21:47.986Z,72.49
2023-01-20T20:24:17.125Z,72.79
2023-01-20T20:26:46.225Z,73.63
2023-01-20T20:29:16.152Z,73.76
2023-01-20T20:31:44.248Z,74.60
2023-01-20T20:34:15.502Z,74.49
2023-01-20T20:36:43.395Z,74.14
2023-01-20T20:39:14.340Z,74.29
2023-01-20T20:41:42.354Z,73.74
2023-01-20T20:44:11.084Z,73.64
2023-01-20T20:46:39.162Z,73.37
2023-01-20T20:49:07.016Z,73.62
2023-01-20T20:51:36.156Z,74.99
2023-01-20T20:54:04.365Z,74.40
2023-01-20T20:56:32.736Z,74.48
2023-01-20T20:59:03.471Z,75.97
2023-01-20T21:01:33.826Z,76.31
2023-01-20T21:04:01.856Z,75.09
2023-01-20T21:06:30.116Z,74.16
2023-01-20T21:08:59.660Z,73.64
2023-01-20T21:11:27.806Z,74.41
2023-01-20T21:13:55.763Z,74.67
2023-01-20T21:16:25.062Z,74.49
2023-01-20T21:18:56.154Z,75.13
2023-01-20T21:21:25.103Z,75.56
2023-01-20T21:23:54.566Z,76.09
2023-01-20T21:26:25.187Z,76.35
2023-01-20T21:28:53.904Z,75.57
2023-01-20T21:31:26.364Z,74.39
2023-01-20T21:33:56.948Z,74.67
2023-01-20T21:36:25.574Z,76.16
2023-01-20T21:38:53.528Z,76.16
2023-01-20T21:41:21.458Z,76.46
2023-01-20T21:44:08.670Z,76.50
2023-01-20T21:46:39.797Z,75.23
2023-01-20T21:49:25.915Z,74.49
2023-01-20T21:52:11.300Z,75.11
2023-01-20T21:54:40.498Z,75.02
2023-01-20T21:57:08.323Z,75.10
2023-01-20T21:59:37.544Z,75.09
2023-01-20T22:02:05.584Z,76.74
2023-01-20T22:04:33.799Z,77.36
2023-01-20T22:07:01.701Z,76.90
2023-01-20T22:09:29.565Z,77.24
2023-01-20T22:11:57.375Z,76.82
2023-01-20T22:14:25.287Z,77.05
2023-01-20T22:16:54.446Z,76.70
2023-01-20T22:19:22.270Z,77.68
2023-01-20T22:21:50.035Z,77.05
2023-01-20T22:24:18.211Z,76.73
2023-01-20T22:26:47.194Z,76.87
2023-01-20T22:29:15.185Z,73.18
2023-01-20T22:31:43.130Z,76.06
2023-01-20T22:34:12.363Z,76.70
2023-01-20T22:36:40.611Z,76.56
2023-01-20T22:39:08.658Z,76.44
2023-01-20T22:41:36.413Z,76.49
2023-01-20T22:44:04.218Z,76.56
2023-01-20T22:46:32.174Z,76.48
2023-01-20T22:49:01.425Z,76.53
2023-01-20T22:51:31.329Z,76.36
2023-01-20T22:54:00.994Z,75.47
2023-01-20T22:56:30.642Z,74.71
2023-01-20T22:58:59.243Z,75.41
2023-01-20T23:01:28.821Z,76.04
2023-01-20T23:03:58.259Z,75.60
2023-01-20T23:06:27.758Z,75.97
2023-01-20T23:08:56.950Z,75.95
2023-01-20T23:11:25.046Z,76.54
2023-01-20T23:13:53.782Z,75.94
2023-01-20T23:16:23.601Z,76.73
2023-01-20T23:18:52.394Z,77.48
2023-01-20T23:21:21.011Z,78.24
2023-01-20T23:23:54.081Z,77.41
2023-01-20T23:26:24.862Z,78.24
2023-01-20T23:28:53.886Z,78.36
2023-01-20T23:31:23.479Z,78.94
2023-01-20T23:33:52.143Z,78.32
2023-01-20T23:36:23.723Z,77.82
2023-01-20T23:38:51.740Z,76.87
2023-01-20T23:41:19.924Z,77.19
2023-01-20T23:43:49.054Z,77.70
2023-01-20T23:46:16.963Z,78.04
2023-01-20T23:48:46.196Z,77.48
2023-01-20T23:51:14.202Z,78.72
2023-01-20T23:53:42.353Z,77.95
2023-01-20T23:56:13.414Z,77.17
2023-01-20T23:58:41.682Z,77.46
